Time;durP1;ratioP1;P1;durP2;ratioP2;P2;SDS_P1;SDS_P2;PMS_P1;PMS_P2;Temp;Humidity;BMP_temperature;BMP_pressure;BME280_temperature;BME280_humidity;BME280_pressure;Samples;Min_cycle;Max_cycle;Signal;HPM_P1;HPM_P2
2024/02/24 00:00:24;;;;;;;12.15;1.73;;;;;;;;;;5069083;28;20150;-73
2024/02/24 00:02:51;;;;;;;4.45;1.92;;;;;;;;;;5084213;28;20047;-71
2024/02/24 00:05:17;;;;;;;3.53;1.60;;;;;;;;;;5074623;28;20704;-73
2024/02/24 00:07:44;;;;;;;4.22;1.70;;;;;;;;;;5088790;28;20052;-73
2024/02/24 00:10:11;;;;;;;3.67;1.77;;;;;;;;;;5095401;28;20410;-73
2024/02/24 00:12:39;;;;;;;;;;;;;;;;;;5078628;28;20041;-71
2024/02/24 00:15:06;;;;;;;2.88;1.60;;;;;;;;;;5077334;28;20716;-73
2024/02/24 00:17:32;;;;;;;2.97;1.90;;;;;;;;;;5092351;28;20059;-73
2024/02/24 00:19:59;;;;;;;4.80;1.85;;;;;;;;;;5085864;28;20082;-72
2024/02/24 00:22:25;;;;;;;5.07;2.00;;;;;;;;;;5085927;28;20059;-73
2024/02/24 00:24:52;;;;;;;5.93;1.90;;;;;;;;;;5087007;28;20071;-73
2024/02/24 00:27:18;;;;;;;2.08;1.70;;;;;;;;;;5088120;28;20086;-72
2024/02/24 00:29:46;;;;;;;5.90;2.00;;;;;;;;;;5086092;28;20094;-72
2024/02/24 00:32:12;;;;;;;4.40;1.80;;;;;;;;;;5084654;28;20134;-73
2024/02/24 00:34:39;;;;;;;4.30;1.88;;;;;;;;;;5074910;28;20105;-74
2024/02/24 00:37:05;;;;;;;3.45;1.83;;;;;;;;;;5109051;28;20075;-72
2024/02/24 00:39:32;;;;;;;3.35;1.85;;;;;;;;;;5078101;28;20048;-73
2024/02/24 00:41:59;;;;;;;5.57;2.35;;;;;;;;;;5088147;28;20048;-72
2024/02/24 00:44:25;;;;;;;5.72;2.05;;;;;;;;;;5088550;28;20076;-73
2024/02/24 00:46:51;;;;;;;7.07;1.75;;;;;;;;;;5081231;28;20056;-73
2024/02/24 00:49:18;;;;;;;4.25;1.88;;;;;;;;;;5095214;28;20076;-72
2024/02/24 00:51:46;;;;;;;4.22;1.77;;;;;;;;;;5065777;28;20052;-73
2024/02/24 00:54:12;;;;;;;4.45;1.95;;;;;;;;;;5073648;28;20048;-73
2024/02/24 00:56:39;;;;;;;3.53;1.60;;;;;;;;;;5070369;28;20446;-75
2024/02/24 00:59:05;;;;;;;2.50;1.50;;;;;;;;;;5080516;28;20050;-73
2024/02/24 01:01:32;;;;;;;4.53;1.70;;;;;;;;;;5078618;28;20842;-73
2024/02/24 01:03:59;;;;;;;3.00;1.70;;;;;;;;;;5072910;28;20092;-73
2024/02/24 01:06:26;;;;;;;3.50;1.70;;;;;;;;;;5054774;28;20489;-74
2024/02/24 01:08:53;;;;;;;3.72;1.63;;;;;;;;;;5053527;28;20048;-74
2024/02/24 01:11:19;;;;;;;5.00;1.75;;;;;;;;;;5080875;28;20698;-73
2024/02/24 01:13:46;;;;;;;3.47;1.60;;;;;;;;;;5082100;28;20099;-73
2024/02/24 01:16:14;;;;;;;5.97;1.55;;;;;;;;;;5071428;28;20044;-72
2024/02/24 01:18:40;;;;;;;3.47;1.60;;;;;;;;;;5072126;28;20144;-72
2024/02/24 01:21:07;;;;;;;4.05;1.70;;;;;;;;;;5059267;28;20054;-72
2024/02/24 01:23:34;;;;;;;3.35;2.03;;;;;;;;;;5078472;28;20499;-74
2024/02/24 01:26:00;;;;;;;3.20;1.80;;;;;;;;;;5082454;28;20350;-72
2024/02/24 01:28:27;;;;;;;3.88;1.65;;;;;;;;;;5072690;28;20480;-73
2024/02/24 01:30:54;;;;;;;3.97;1.83;;;;;;;;;;5074658;28;20450;-73
2024/02/24 01:33:21;;;;;;;4.20;1.80;;;;;;;;;;5082202;28;20102;-73
2024/02/24 01:35:47;;;;;;;3.65;1.90;;;;;;;;;;5072082;28;20055;-73
2024/02/24 01:38:14;;;;;;;2.88;1.63;;;;;;;;;;5089501;28;20044;-73
2024/02/24 01:40:40;;;;;;;4.45;2.15;;;;;;;;;;5072117;28;20053;-74
2024/02/24 01:43:23;;;;;;;3.80;1.88;;;;;;;;;;5071339;28;20041;-73
2024/02/24 01:45:50;;;;;;;2.03;1.55;;;;;;;;;;5079266;28;20055;-72
2024/02/24 01:48:17;;;;;;;6.07;2.00;;;;;;;;;;5073989;28;20424;-73
2024/02/24 01:50:48;;;;;;;3.22;1.60;;;;;;;;;;5082196;28;20078;-72
2024/02/24 01:53:20;;;;;;;5.32;1.50;;;;;;;;;;5055712;28;20728;-72
2024/02/24 01:55:47;;;;;;;2.78;1.45;;;;;;;;;;5076139;28;20055;-73
2024/02/24 01:58:17;;;;;;;2.72;1.88;;;;;;;;;;5072087;28;20135;-72
2024/02/24 02:00:44;;;;;;;2.28;1.58;;;;;;;;;;5072303;28;20488;-72
2024/02/24 02:03:11;;;;;;;2.22;1.60;;;;;;;;;;5059760;28;20049;-73
2024/02/24 02:05:37;;;;;;;3.40;1.40;;;;;;;;;;5056159;28;20052;-73
2024/02/24 02:08:04;;;;;;;5.03;1.73;;;;;;;;;;5051678;28;20524;-73
2024/02/24 02:10:55;;;;;;;1.90;1.27;;;;;;;;;;5061220;28;20086;-73
2024/02/24 02:13:22;;;;;;;2.97;1.27;;;;;;;;;;5052537;28;20151;-73
2024/02/24 02:15:51;;;;;;;4.97;1.45;;;;;;;;;;5082527;28;20051;-74
2024/02/24 02:18:18;;;;;;;2.47;1.60;;;;;;;;;;5067442;28;20056;-73
2024/02/24 02:20:46;;;;;;;4.10;1.60;;;;;;;;;;5084413;28;20048;-73
2024/02/24 02:23:13;;;;;;;3.58;1.33;;;;;;;;;;5066890;28;20058;-73
2024/02/24 02:25:40;;;;;;;2.88;1.58;;;;;;;;;;5080376;28;20080;-74
2024/02/24 02:28:07;;;;;;;2.42;1.58;;;;;;;;;;5060989;28;20136;-78
2024/02/24 02:30:33;;;;;;;2.58;1.25;;;;;;;;;;5059325;28;20068;-80
2024/02/24 02:33:00;;;;;;;2.80;1.38;;;;;;;;;;5068878;28;20063;-81
2024/02/24 02:35:27;;;;;;;4.15;1.70;;;;;;;;;;5070520;28;20055;-81
2024/02/24 02:37:53;;;;;;;8.40;1.52;;;;;;;;;;5055721;28;20139;-81
2024/02/24 02:40:19;;;;;;;3.03;1.50;;;;;;;;;;5076863;28;20590;-78
2024/02/24 02:42:46;;;;;;;4.90;2.00;;;;;;;;;;5063568;28;20105;-81
2024/02/24 02:45:12;;;;;;;4.20;1.45;;;;;;;;;;5066358;28;20626;-82
2024/02/24 02:47:39;;;;;;;2.63;1.40;;;;;;;;;;5066493;28;20044;-82
2024/02/24 02:50:07;;;;;;;5.30;1.70;;;;;;;;;;5061408;28;20370;-78
2024/02/24 02:52:34;;;;;;;2.93;1.50;;;;;;;;;;5065904;28;20730;-82
2024/02/24 02:55:01;;;;;;;3.38;1.40;;;;;;;;;;5073906;28;20292;-83
2024/02/24 02:57:27;;;;;;;3.28;1.65;;;;;;;;;;5067714;28;20066;-79
2024/02/24 02:59:53;;;;;;;4.15;2.10;;;;;;;;;;5078644;28;20056;-82
2024/02/24 03:02:20;;;;;;;3.58;1.80;;;;;;;;;;5074184;28;20132;-79
2024/02/24 03:04:46;;;;;;;1.92;1.25;;;;;;;;;;5077070;28;20393;-81
2024/02/24 03:07:13;;;;;;;2.72;1.45;;;;;;;;;;5074334;28;20055;-78
2024/02/24 03:09:39;;;;;;;3.50;1.60;;;;;;;;;;5063090;28;20118;-79
2024/02/24 03:12:05;;;;;;;4.03;1.63;;;;;;;;;;5077420;28;20411;-78
2024/02/24 03:14:32;;;;;;;2.33;1.52;;;;;;;;;;5087804;28;20052;-78
2024/02/24 03:16:58;;;;;;;4.07;1.42;;;;;;;;;;5081218;28;20055;-80
2024/02/24 03:19:25;;;;;;;2.75;1.42;;;;;;;;;;5066831;28;20049;-79
2024/02/24 03:21:51;;;;;;;4.72;1.35;;;;;;;;;;5062009;28;20072;-79
2024/02/24 03:24:18;;;;;;;3.10;1.40;;;;;;;;;;5079487;28;20105;-78
2024/02/24 03:26:47;;;;;;;3.92;1.73;;;;;;;;;;5072341;28;20044;-79
2024/02/24 03:29:14;;;;;;;3.75;1.65;;;;;;;;;;5067258;28;20576;-78
2024/02/24 03:31:40;;;;;;;2.72;1.70;;;;;;;;;;5071992;28;20052;-80
2024/02/24 03:34:07;;;;;;;3.67;1.73;;;;;;;;;;5074570;28;20050;-80
2024/02/24 03:36:33;;;;;;;2.97;1.55;;;;;;;;;;5073849;28;20056;-80
2024/02/24 03:39:00;;;;;;;4.78;1.70;;;;;;;;;;5075203;28;20586;-79
2024/02/24 03:41:29;;;;;;;4.22;1.80;;;;;;;;;;5083402;28;20051;-81
2024/02/24 03:43:56;;;;;;;2.88;1.45;;;;;;;;;;5071049;28;20092;-81
2024/02/24 03:46:22;;;;;;;4.13;1.92;;;;;;;;;;5057987;28;20093;-81
2024/02/24 03:48:49;;;;;;;3.90;1.80;;;;;;;;;;5069521;28;20064;-78
2024/02/24 03:51:15;;;;;;;2.60;1.70;;;;;;;;;;5087538;28;20059;-80
2024/02/24 03:53:42;;;;;;;3.53;1.65;;;;;;;;;;5051066;28;20044;-80
2024/02/24 03:56:08;;;;;;;2.58;1.63;;;;;;;;;;5086137;28;20071;-80
2024/02/24 03:58:35;;;;;;;3.95;1.90;;;;;;;;;;5054915;28;20056;-80
2024/02/24 04:01:02;;;;;;;4.05;1.83;;;;;;;;;;5057531;28;20045;-80
2024/02/24 04:03:28;;;;;;;2.97;1.58;;;;;;;;;;5082916;28;20472;-79
2024/02/24 04:05:55;;;;;;;5.38;2.20;;;;;;;;;;5072960;28;20048;-81
2024/02/24 04:08:22;;;;;;;3.97;2.00;;;;;;;;;;5080418;28;20083;-79
2024/02/24 04:10:48;;;;;;;2.92;1.65;;;;;;;;;;5074783;28;20052;-79
2024/02/24 04:13:15;;;;;;;2.55;1.70;;;;;;;;;;5067126;28;20055;-81
2024/02/24 04:15:45;;;;;;;4.43;2.10;;;;;;;;;;5072179;28;20612;-76
2024/02/24 04:18:13;;;;;;;5.78;1.95;;;;;;;;;;5077825;28;20723;-82
2024/02/24 04:20:40;;;;;;;2.83;1.88;;;;;;;;;;5069415;28;20055;-82
2024/02/24 04:23:07;;;;;;;3.55;2.10;;;;;;;;;;5081096;28;20147;-82
2024/02/24 04:25:34;;;;;;;3.00;2.10;;;;;;;;;;5069366;28;20066;-81
2024/02/24 04:28:00;;;;;;;4.80;2.03;;;;;;;;;;5072847;28;20094;-82
2024/02/24 04:30:26;;;;;;;3.80;1.95;;;;;;;;;;5071003;28;20080;-81
2024/02/24 04:32:53;;;;;;;3.78;1.75;;;;;;;;;;5066691;28;20149;-81
2024/02/24 04:35:19;;;;;;;4.18;2.28;;;;;;;;;;5081991;28;20207;-81
2024/02/24 04:37:45;;;;;;;3.60;2.03;;;;;;;;;;5090255;28;20052;-80
2024/02/24 04:40:12;;;;;;;2.95;2.05;;;;;;;;;;5074270;28;20438;-81
2024/02/24 04:42:39;;;;;;;3.25;1.80;;;;;;;;;;5079588;28;20752;-80
2024/02/24 04:45:05;;;;;;;3.92;2.35;;;;;;;;;;5071247;28;20093;-79
2024/02/24 04:47:32;;;;;;;3.80;2.25;;;;;;;;;;5096702;28;20064;-81
2024/02/24 04:49:58;;;;;;;3.85;2.17;;;;;;;;;;5084971;28;20118;-73
2024/02/24 04:52:27;;;;;;;3.13;1.98;;;;;;;;;;5054192;28;20048;-73
2024/02/24 04:54:53;;;;;;;2.80;2.05;;;;;;;;;;5072355;28;20072;-72
2024/02/24 04:57:20;;;;;;;3.50;2.20;;;;;;;;;;5071235;28;20056;-72
2024/02/24 04:59:46;;;;;;;5.07;2.17;;;;;;;;;;5088262;28;20101;-72
2024/02/24 05:02:13;;;;;;;4.40;1.95;;;;;;;;;;5092286;28;20134;-72
2024/02/24 05:04:40;;;;;;;3.22;1.77;;;;;;;;;;5078436;28;20070;-72
2024/02/24 05:07:06;;;;;;;3.58;2.10;;;;;;;;;;5074844;28;20098;-72
2024/02/24 05:09:33;;;;;;;5.38;2.33;;;;;;;;;;5090402;28;20047;-73
2024/02/24 05:11:59;;;;;;;3.97;2.00;;;;;;;;;;5083870;28;20398;-71
2024/02/24 05:14:26;;;;;;;2.55;1.50;;;;;;;;;;5078703;28;20045;-71
2024/02/24 05:16:53;;;;;;;6.25;2.20;;;;;;;;;;5077943;28;20040;-71
2024/02/24 05:19:20;;;;;;;3.05;1.73;;;;;;;;;;5062522;28;20113;-71
2024/02/24 05:21:47;;;;;;;3.17;2.88;;;;;;;;;;5071849;28;20059;-70
2024/02/24 05:24:15;;;;;;;2.83;2.05;;;;;;;;;;5072454;28;20597;-73
2024/02/24 05:26:42;;;;;;;2.72;2.00;;;;;;;;;;5077015;28;20170;-71
2024/02/24 05:29:09;;;;;;;4.20;1.90;;;;;;;;;;5077578;28;20079;-71
2024/02/24 05:31:37;;;;;;;3.78;1.85;;;;;;;;;;5091362;28;20101;-71
2024/02/24 05:34:06;;;;;;;3.33;2.10;;;;;;;;;;5082756;28;20053;-70
2024/02/24 05:36:35;;;;;;;4.10;1.77;;;;;;;;;;5068425;28;20064;-73
2024/02/24 05:39:04;;;;;;;5.25;2.00;;;;;;;;;;5071745;28;20049;-70
2024/02/24 05:41:30;;;;;;;;;;;;;;;;;;5064042;28;20051;-71
2024/02/24 05:43:58;;;;;;;3.17;1.90;;;;;;;;;;5080359;28;19927;-70
2024/02/24 05:46:24;;;;;;;4.03;1.80;;;;;;;;;;5104685;28;20155;-71
2024/02/24 05:48:51;;;;;;;2.97;1.67;;;;;;;;;;5073292;28;20048;-70
2024/02/24 05:51:18;;;;;;;4.85;2.33;;;;;;;;;;5064546;28;20127;-71
2024/02/24 05:53:44;;;;;;;3.75;1.95;;;;;;;;;;5067929;28;20101;-71
2024/02/24 05:56:11;;;;;;;2.78;1.88;;;;;;;;;;5079962;28;20075;-71
2024/02/24 05:58:37;;;;;;;3.72;2.15;;;;;;;;;;5087879;28;20040;-73
2024/02/24 06:01:03;;;;;;;3.92;2.03;;;;;;;;;;5074476;28;20462;-71
2024/02/24 06:03:30;;;;;;;3.92;2.20;;;;;;;;;;5069950;28;20139;-71
2024/02/24 06:05:56;;;;;;;4.93;2.35;;;;;;;;;;5072232;28;20044;-71
2024/02/24 06:08:23;;;;;;;3.53;2.35;;;;;;;;;;5093946;28;20052;-71
2024/02/24 06:10:49;;;;;;;5.45;2.25;;;;;;;;;;5076799;28;20045;-70
2024/02/24 06:13:17;;;;;;;3.85;2.00;;;;;;;;;;5082753;28;20380;-70
2024/02/24 06:15:44;;;;;;;3.10;2.03;;;;;;;;;;5068018;28;20044;-71
2024/02/24 06:18:10;;;;;;;5.05;1.85;;;;;;;;;;5056509;28;20503;-70
2024/02/24 06:20:38;;;;;;;3.40;2.28;;;;;;;;;;5075147;28;20075;-73
2024/02/24 06:23:05;;;;;;;4.28;2.10;;;;;;;;;;5063842;28;20055;-70
2024/02/24 06:25:32;;;;;;;4.60;2.30;;;;;;;;;;5072855;28;20051;-71
2024/02/24 06:27:59;;;;;;;3.55;2.50;;;;;;;;;;5101545;28;20056;-70
2024/02/24 06:30:25;;;;;;;4.65;2.65;;;;;;;;;;5102762;28;20094;-71
2024/02/24 06:32:52;;;;;;;5.75;2.10;;;;;;;;;;5081244;28;20548;-71
2024/02/24 06:35:18;;;;;;;2.03;1.75;;;;;;;;;;5088710;28;20047;-70
2024/02/24 06:37:45;;;;;;;3.45;2.20;;;;;;;;;;5091251;28;20404;-71
2024/02/24 06:40:11;;;;;;;2.95;1.75;;;;;;;;;;5076392;28;20131;-71
2024/02/24 06:42:41;;;;;;;3.97;2.10;;;;;;;;;;5092091;28;20047;-71
2024/02/24 06:45:09;;;;;;;2.47;1.63;;;;;;;;;;5075308;28;20479;-70
2024/02/24 06:47:35;;;;;;;5.10;2.03;;;;;;;;;;5079107;28;20048;-71
2024/02/24 06:50:03;;;;;;;3.28;1.83;;;;;;;;;;5069990;28;20463;-73
2024/02/24 06:52:29;;;;;;;2.85;2.03;;;;;;;;;;5068666;28;20079;-71
2024/02/24 06:54:55;;;;;;;2.55;1.80;;;;;;;;;;5085263;28;20044;-70
2024/02/24 06:57:22;;;;;;;5.13;2.20;;;;;;;;;;5051556;28;20056;-70
2024/02/24 06:59:50;;;;;;;3.28;2.40;;;;;;;;;;5072554;28;20044;-70
2024/02/24 07:02:16;;;;;;;4.43;2.35;;;;;;;;;;5068330;28;20048;-71
2024/02/24 07:04:43;;;;;;;4.22;2.40;;;;;;;;;;5061699;28;20048;-70
2024/02/24 07:07:10;;;;;;;4.15;2.15;;;;;;;;;;5076843;28;20071;-70
2024/02/24 07:09:37;;;;;;;6.53;3.83;;;;;;;;;;5062478;28;20466;-75
2024/02/24 07:12:04;;;;;;;4.43;2.50;;;;;;;;;;5083641;28;20056;-77
2024/02/24 07:14:30;;;;;;;4.80;2.45;;;;;;;;;;5071686;28;20426;-78
2024/02/24 07:16:57;;;;;;;3.58;2.22;;;;;;;;;;5075714;28;20241;-77
2024/02/24 07:19:23;;;;;;;3.25;1.95;;;;;;;;;;5078310;28;20716;-77
2024/02/24 07:21:50;;;;;;;5.00;2.30;;;;;;;;;;5064043;28;20387;-78
2024/02/24 07:24:16;;;;;;;5.07;2.40;;;;;;;;;;5070789;28;20054;-79
2024/02/24 07:26:42;;;;;;;4.38;2.40;;;;;;;;;;5068745;28;20068;-79
2024/02/24 07:29:14;;;;;;;2.85;2.15;;;;;;;;;;5081049;28;20499;-76
2024/02/24 07:31:40;;;;;;;3.67;2.53;;;;;;;;;;5082058;28;20058;-77
2024/02/24 07:34:07;;;;;;;3.95;2.67;;;;;;;;;;5070527;28;20479;-78
2024/02/24 07:36:33;;;;;;;5.57;2.90;;;;;;;;;;5080885;28;20050;-78
2024/02/24 07:39:00;;;;;;;9.20;2.83;;;;;;;;;;5062838;28;20048;-77
2024/02/24 07:41:26;;;;;;;4.50;2.42;;;;;;;;;;5070646;28;20118;-81
2024/02/24 07:43:53;;;;;;;4.18;2.63;;;;;;;;;;5071699;28;20048;-79
2024/02/24 07:46:27;;;;;;;5.22;3.25;;;;;;;;;;5084361;28;20143;-78
2024/02/24 07:48:57;;;;;;;4.88;2.72;;;;;;;;;;5066483;28;20044;-79
2024/02/24 07:51:24;;;;;;;6.38;2.85;;;;;;;;;;5092765;28;20048;-77
2024/02/24 07:53:50;;;;;;;6.53;2.67;;;;;;;;;;5057916;28;20044;-79
2024/02/24 07:56:17;;;;;;;3.65;2.55;;;;;;;;;;5074684;28;20090;-78
2024/02/24 07:58:43;;;;;;;4.43;2.60;;;;;;;;;;5079987;28;20048;-80
2024/02/24 08:01:10;;;;;;;4.47;2.38;;;;;;;;;;5085608;28;20047;-79
2024/02/24 08:03:36;;;;;;;6.22;2.90;;;;;;;;;;5071418;28;20056;-79
2024/02/24 08:06:03;;;;;;;4.82;2.95;;;;;;;;;;5071358;28;20671;-79
2024/02/24 08:08:30;;;;;;;4.88;2.83;;;;;;;;;;5083441;28;20203;-76
2024/02/24 08:10:57;;;;;;;4.88;2.60;;;;;;;;;;5063696;28;20113;-79
2024/02/24 08:13:25;;;;;;;7.07;3.13;;;;;;;;;;5082333;28;20770;-78
2024/02/24 08:15:52;;;;;;;3.72;2.63;;;;;;;;;;5079246;28;20041;-80
2024/02/24 08:18:18;;;;;;;4.15;2.70;;;;;;;;;;5065635;28;20044;-70
2024/02/24 08:20:45;;;;;;;4.38;2.25;;;;;;;;;;5059932;28;20109;-70
2024/02/24 08:23:12;;;;;;;4.10;2.67;;;;;;;;;;5087750;28;20063;-70
2024/02/24 08:25:38;;;;;;;3.90;2.45;;;;;;;;;;5068445;28;20769;-72
2024/02/24 08:28:06;;;;;;;4.43;2.75;;;;;;;;;;5065690;28;20105;-70
2024/02/24 08:30:32;;;;;;;3.63;2.30;;;;;;;;;;5074967;28;20100;-71
2024/02/24 08:32:59;;;;;;;3.95;2.53;;;;;;;;;;5094047;28;20052;-71
2024/02/24 08:35:25;;;;;;;3.58;2.40;;;;;;;;;;5070016;28;20056;-71
2024/02/24 08:37:52;;;;;;;3.90;2.35;;;;;;;;;;5082159;28;20059;-71
2024/02/24 08:40:18;;;;;;;3.05;2.35;;;;;;;;;;5074958;28;20083;-71
2024/02/24 08:42:45;;;;;;;4.00;2.10;;;;;;;;;;5073040;28;20059;-70
2024/02/24 08:45:11;;;;;;;4.13;2.20;;;;;;;;;;5087734;28;20075;-71
2024/02/24 08:47:38;;;;;;;3.78;1.92;;;;;;;;;;5081653;28;20056;-71
2024/02/24 08:50:05;;;;;;;3.72;2.08;;;;;;;;;;5081877;28;20053;-71
2024/02/24 08:52:31;;;;;;;4.15;2.08;;;;;;;;;;5100263;28;20044;-70
2024/02/24 08:55:11;;;;;;;7.72;2.50;;;;;;;;;;5066549;28;20048;-71
2024/02/24 08:57:38;;;;;;;4.78;2.30;;;;;;;;;;5089722;28;20063;-72
2024/02/24 09:00:05;;;;;;;3.38;2.28;;;;;;;;;;5077517;28;20490;-70
2024/02/24 09:02:31;;;;;;;3.60;2.00;;;;;;;;;;5075807;28;20544;-69
2024/02/24 09:04:58;;;;;;;3.65;2.35;;;;;;;;;;5077094;28;20132;-69
2024/02/24 09:07:25;;;;;;;4.72;1.90;;;;;;;;;;5078557;28;20056;-70
2024/02/24 09:09:51;;;;;;;2.92;1.60;;;;;;;;;;5052889;28;20557;-69
2024/02/24 09:12:18;;;;;;;2.50;1.88;;;;;;;;;;5066481;28;20075;-69
2024/02/24 09:14:44;;;;;;;3.55;2.13;;;;;;;;;;5047863;28;20063;-70
2024/02/24 09:17:10;;;;;;;3.85;2.03;;;;;;;;;;5084852;28;20048;-73
2024/02/24 09:19:37;;;;;;;5.53;2.60;;;;;;;;;;5076361;28;20132;-72
2024/02/24 09:22:03;;;;;;;3.63;2.00;;;;;;;;;;5087735;28;20418;-69
2024/02/24 09:24:30;;;;;;;3.78;2.13;;;;;;;;;;5072316;28;20488;-70
2024/02/24 09:26:56;;;;;;;7.97;2.13;;;;;;;;;;5060062;28;20048;-70
2024/02/24 09:29:22;;;;;;;3.40;1.92;;;;;;;;;;5081090;28;20067;-76
2024/02/24 09:31:49;;;;;;;3.75;1.92;;;;;;;;;;5067129;28;20138;-75
2024/02/24 09:34:16;;;;;;;2.58;1.73;;;;;;;;;;5086015;28;20195;-75
2024/02/24 09:36:43;;;;;;;3.53;1.63;;;;;;;;;;5087488;28;20054;-75
2024/02/24 09:39:11;;;;;;;2.60;1.70;;;;;;;;;;5055745;28;20084;-76
2024/02/24 09:41:37;;;;;;;2.30;1.45;;;;;;;;;;5076990;28;20377;-74
2024/02/24 09:44:04;;;;;;;1.98;1.48;;;;;;;;;;5070603;28;20056;-75
2024/02/24 09:46:32;;;;;;;2.45;1.40;;;;;;;;;;5069535;28;20476;-74
2024/02/24 09:49:01;;;;;;;1.92;1.40;;;;;;;;;;5087189;28;20412;-75
2024/02/24 09:51:29;;;;;;;1.92;1.38;;;;;;;;;;5062998;28;20052;-75
2024/02/24 09:53:58;;;;;;;3.50;1.92;;;;;;;;;;5047120;28;20059;-73
2024/02/24 09:56:25;;;;;;;3.08;2.00;;;;;;;;;;5067277;28;20087;-75
2024/02/24 09:58:53;;;;;;;4.10;2.25;;;;;;;;;;5069061;28;20455;-74
2024/02/24 10:01:20;;;;;;;3.25;2.25;;;;;;;;;;5076651;28;20044;-74
2024/02/24 10:03:48;;;;;;;4.25;2.80;;;;;;;;;;5079575;28;20138;-74
2024/02/24 10:06:16;;;;;;;4.47;2.70;;;;;;;;;;5073116;28;20060;-75
2024/02/24 10:08:43;;;;;;;3.17;2.50;;;;;;;;;;5072844;28;20063;-76
2024/02/24 10:11:13;;;;;;;5.72;3.25;;;;;;;;;;5080449;28;20048;-74
2024/02/24 10:13:42;;;;;;;4.43;2.85;;;;;;;;;;5063823;28;20052;-76
2024/02/24 10:16:11;;;;;;;5.07;2.60;;;;;;;;;;5061584;28;20152;-76
2024/02/24 10:18:40;;;;;;;6.75;3.33;;;;;;;;;;5068541;28;20139;-76
2024/02/24 10:21:07;;;;;;;4.63;3.10;;;;;;;;;;5075977;28;20048;-73
2024/02/24 10:23:34;;;;;;;5.07;3.20;;;;;;;;;;5065182;28;20053;-76
2024/02/24 10:26:03;;;;;;;5.40;3.17;;;;;;;;;;5064249;28;20167;-76
2024/02/24 10:28:29;;;;;;;;;;;;;;;;;;5075607;28;20044;-75
2024/02/24 10:30:57;;;;;;;6.28;2.70;;;;;;;;;;5076242;28;20001;-74
2024/02/24 10:33:24;;;;;;;5.00;2.65;;;;;;;;;;5067697;28;20080;-74
2024/02/24 10:35:51;;;;;;;4.72;2.85;;;;;;;;;;5071587;28;20052;-74
2024/02/24 10:38:19;;;;;;;8.00;2.97;;;;;;;;;;5086292;28;20077;-70
2024/02/24 10:41:01;;;;;;;6.70;3.88;;;;;;;;;;5069279;28;20052;-74
2024/02/24 10:43:28;;;;;;;7.15;3.60;;;;;;;;;;5064822;28;20075;-75
2024/02/24 10:45:55;;;;;;;6.18;3.47;;;;;;;;;;5082364;28;20495;-75
2024/02/24 10:48:21;;;;;;;5.88;3.30;;;;;;;;;;5077034;28;20044;-74
2024/02/24 10:50:48;;;;;;;7.32;3.88;;;;;;;;;;5074256;28;20460;-74
2024/02/24 10:53:16;;;;;;;6.28;3.95;;;;;;;;;;5084642;28;20040;-74
2024/02/24 10:55:43;;;;;;;6.63;3.83;;;;;;;;;;5070502;28;20041;-75
2024/02/24 10:58:09;;;;;;;4.60;3.40;;;;;;;;;;5073741;28;20487;-75
2024/02/24 11:00:36;;;;;;;10.32;3.72;;;;;;;;;;5049039;28;20791;-78
2024/02/24 11:03:05;;;;;;;5.88;3.60;;;;;;;;;;5069775;28;20472;-74
2024/02/24 11:05:32;;;;;;;6.25;4.03;;;;;;;;;;5082884;28;20870;-75
2024/02/24 11:08:00;;;;;;;5.05;3.30;;;;;;;;;;5068800;28;20055;-76
2024/02/24 11:10:32;;;;;;;6.00;3.60;;;;;;;;;;5073503;28;20075;-76
2024/02/24 11:13:00;;;;;;;4.38;3.17;;;;;;;;;;5080194;28;20872;-75
2024/02/24 11:15:27;;;;;;;5.03;3.50;;;;;;;;;;5068373;28;20044;-76
2024/02/24 11:17:56;;;;;;;6.18;4.00;;;;;;;;;;5060208;28;20047;-76
2024/02/24 11:20:37;;;;;;;6.40;3.47;;;;;;;;;;5083389;28;20106;-74
2024/02/24 11:23:26;;;;;;;4.38;2.92;;;;;;;;;;5061875;28;20040;-75
2024/02/24 11:26:22;;;;;;;5.38;3.00;;;;;;;;;;5068397;28;20048;-76
2024/02/24 11:28:59;;;;;;;3.53;2.65;;;;;;;;;;5042262;28;20071;-74
2024/02/24 11:31:31;;;;;;;4.30;2.67;;;;;;;;;;5077339;28;20044;-76
2024/02/24 11:34:01;;;;;;;5.00;2.85;;;;;;;;;;5072367;28;20141;-77
2024/02/24 11:36:30;;;;;;;3.63;2.58;;;;;;;;;;5081715;28;20121;-73
2024/02/24 11:38:57;;;;;;;3.25;2.45;;;;;;;;;;5067231;28;20055;-76
2024/02/24 11:41:27;;;;;;;5.05;2.80;;;;;;;;;;5073140;28;20143;-79
2024/02/24 11:43:53;;;;;;;5.10;2.40;;;;;;;;;;5082129;28;20075;-77
2024/02/24 11:46:20;;;;;;;3.72;2.17;;;;;;;;;;5054409;28;20118;-76
2024/02/24 11:48:46;;;;;;;4.32;2.30;;;;;;;;;;5061593;28;20056;-77
2024/02/24 11:51:13;;;;;;;3.60;2.00;;;;;;;;;;5084454;28;20790;-77
2024/02/24 11:53:40;;;;;;;4.07;1.95;;;;;;;;;;5057163;28;20495;-77
2024/02/24 11:56:06;;;;;;;5.40;1.88;;;;;;;;;;5071213;28;20118;-76
2024/02/24 11:58:34;;;;;;;3.30;1.63;;;;;;;;;;5059290;28;20883;-78
2024/02/24 12:01:04;;;;;;;4.10;2.00;;;;;;;;;;5063576;28;20044;-75
2024/02/24 12:03:30;;;;;;;5.03;1.50;;;;;;;;;;5062746;28;20058;-77
2024/02/24 12:06:00;;;;;;;2.70;1.30;;;;;;;;;;5080006;28;20311;-78
2024/02/24 12:08:27;;;;;;;2.25;1.30;;;;;;;;;;5079021;28;20120;-79
2024/02/24 12:10:53;;;;;;;2.55;1.20;;;;;;;;;;5067787;28;20686;-77
2024/02/24 12:13:20;;;;;;;2.33;1.23;;;;;;;;;;5077733;28;20044;-76
2024/02/24 12:15:46;;;;;;;2.97;1.38;;;;;;;;;;5080248;28;20515;-78
2024/02/24 12:18:13;;;;;;;2.63;1.35;;;;;;;;;;5076326;28;20080;-78
2024/02/24 12:20:41;;;;;;;3.20;1.50;;;;;;;;;;5075975;28;20080;-77
2024/02/24 12:23:08;;;;;;;4.75;1.80;;;;;;;;;;5081522;28;20119;-76
2024/02/24 12:25:34;;;;;;;4.70;1.48;;;;;;;;;;5077653;28;20080;-78
2024/02/24 12:28:04;;;;;;;8.65;1.38;;;;;;;;;;5075391;28;20486;-78
2024/02/24 12:30:37;;;;;;;3.47;1.38;;;;;;;;;;5081125;28;20805;-76
2024/02/24 12:33:04;;;;;;;4.07;1.33;;;;;;;;;;5092737;28;20154;-76
2024/02/24 12:35:31;;;;;;;5.47;1.52;;;;;;;;;;5076761;28;20077;-76
2024/02/24 12:37:58;;;;;;;6.20;2.05;;;;;;;;;;5073152;28;20048;-75
2024/02/24 12:40:28;;;;;;;3.05;1.52;;;;;;;;;;5085063;28;20059;-77
2024/02/24 12:42:54;;;;;;;5.00;1.77;;;;;;;;;;5052501;28;20052;-76
2024/02/24 12:45:21;;;;;;;5.43;1.80;;;;;;;;;;5077833;28;20484;-76
2024/02/24 12:47:50;;;;;;;3.40;1.70;;;;;;;;;;5072712;28;20144;-77
2024/02/24 12:50:21;;;;;;;3.90;1.20;;;;;;;;;;5079739;28;20060;-75
2024/02/24 12:52:47;;;;;;;5.45;1.70;;;;;;;;;;5057506;28;20066;-77
2024/02/24 12:55:14;;;;;;;2.22;1.25;;;;;;;;;;5064699;28;20693;-76
2024/02/24 12:57:41;;;;;;;5.45;1.77;;;;;;;;;;5063941;28;20081;-76
2024/02/24 13:00:08;;;;;;;3.50;1.27;;;;;;;;;;5062371;28;20467;-70
2024/02/24 13:02:35;;;;;;;5.15;1.30;;;;;;;;;;5055595;28;20696;-69
2024/02/24 13:05:02;;;;;;;4.15;1.60;;;;;;;;;;5073154;28;20082;-72
2024/02/24 13:07:29;;;;;;;3.45;1.30;;;;;;;;;;5060020;28;20056;-72
2024/02/24 13:09:55;;;;;;;3.65;1.30;;;;;;;;;;5074543;28;20079;-72
2024/02/24 13:12:22;;;;;;;4.72;1.25;;;;;;;;;;5066097;28;20049;-71
2024/02/24 13:14:48;;;;;;;3.92;1.40;;;;;;;;;;5073074;28;20052;-71
2024/02/24 13:17:15;;;;;;;4.38;1.50;;;;;;;;;;5075352;28;20056;-70
2024/02/24 13:19:41;;;;;;;4.10;1.20;;;;;;;;;;5070563;28;20100;-71
2024/02/24 13:22:08;;;;;;;5.72;1.00;;;;;;;;;;5059176;28;20052;-71
2024/02/24 13:24:34;;;;;;;1.88;0.90;;;;;;;;;;5084240;28;20056;-70
2024/02/24 13:27:01;;;;;;;2.95;1.15;;;;;;;;;;5071166;28;20056;-71
2024/02/24 13:29:29;;;;;;;5.55;1.58;;;;;;;;;;5047467;28;20052;-74
2024/02/24 13:31:56;;;;;;;3.40;1.50;;;;;;;;;;5055145;28;20040;-71
2024/02/24 13:34:22;;;;;;;3.00;1.10;;;;;;;;;;5077876;28;20044;-71
2024/02/24 13:36:49;;;;;;;3.15;1.30;;;;;;;;;;5092139;28;20051;-70
2024/02/24 13:39:16;;;;;;;5.90;1.20;;;;;;;;;;5078167;28;20102;-71
2024/02/24 13:41:42;;;;;;;2.38;1.05;;;;;;;;;;5081447;28;20044;-71
2024/02/24 13:44:12;;;;;;;2.65;0.98;;;;;;;;;;5082615;28;20131;-72
2024/02/24 13:46:42;;;;;;;2.75;1.00;;;;;;;;;;5061846;28;20064;-71
2024/02/24 13:49:12;;;;;;;1.70;0.75;;;;;;;;;;5056960;28;20094;-71
2024/02/24 13:51:39;;;;;;;2.55;1.08;;;;;;;;;;5081789;28;20504;-71
2024/02/24 13:54:06;;;;;;;1.42;0.75;;;;;;;;;;5078608;28;20040;-73
2024/02/24 13:56:33;;;;;;;1.42;0.98;;;;;;;;;;5068678;28;20140;-71
2024/02/24 13:59:03;;;;;;;2.03;0.98;;;;;;;;;;5056489;28;20044;-72
2024/02/24 14:01:30;;;;;;;0.65;0.50;;;;;;;;;;5059005;28;20127;-70
2024/02/24 14:03:57;;;;;;;2.70;1.00;;;;;;;;;;5067938;28;20155;-71
2024/02/24 14:06:24;;;;;;;2.75;0.80;;;;;;;;;;5075369;28;20101;-71
2024/02/24 14:08:50;;;;;;;1.58;0.73;;;;;;;;;;5085432;28;20094;-78
2024/02/24 14:11:17;;;;;;;4.10;1.00;;;;;;;;;;5067853;28;20056;-77
2024/02/24 14:13:43;;;;;;;4.72;1.00;;;;;;;;;;5082235;28;20159;-78
2024/02/24 14:16:10;;;;;;;3.30;1.10;;;;;;;;;;5066305;28;20044;-77
2024/02/24 14:18:36;;;;;;;3.33;0.98;;;;;;;;;;5075615;28;20074;-77
2024/02/24 14:21:03;;;;;;;3.42;1.00;;;;;;;;;;5073465;28;20056;-77
2024/02/24 14:23:29;;;;;;;1.50;0.73;;;;;;;;;;5069560;28;20846;-74
2024/02/24 14:25:56;;;;;;;5.15;1.20;;;;;;;;;;5077423;28;20421;-78
2024/02/24 14:28:22;;;;;;;2.33;1.00;;;;;;;;;;5060655;28;20106;-77
2024/02/24 14:30:49;;;;;;;1.27;0.85;;;;;;;;;;5087849;28;20419;-78
2024/02/24 14:33:19;;;;;;;3.65;1.10;;;;;;;;;;5071681;28;20420;-75
2024/02/24 14:35:46;;;;;;;2.53;1.05;;;;;;;;;;5081324;28;20047;-77
2024/02/24 14:38:13;;;;;;;1.45;1.00;;;;;;;;;;5072025;28;20040;-77
2024/02/24 14:40:39;;;;;;;2.20;0.95;;;;;;;;;;5073621;28;20164;-75
2024/02/24 14:43:06;;;;;;;3.00;1.20;;;;;;;;;;5070162;28;20275;-78